Date,TemperatureHighF,TemperatureAvgF,TemperatureLowF,DewpointHighF,DewpointAvgF,DewpointLowF,HumidityHigh,HumidityAvg,HumidityLow,PressureMaxIn,PressureMinIn,WindSpeedMaxMPH,WindSpeedAvgMPH,GustSpeedMaxMPH,PrecipitationSumIn
2013-1-1,40,31,20,26,21,17,92,69,44,30.41,30.30,6,1,11,0.01
2013-1-2,48,38,29,24,20,16,65,50,36,30.32,30.15,8,2,14,0.00
2013-1-3,41,35,28,32,25,20,92,68,50,30.35,30.13,9,3,15,0.00
2013-1-4,42,32,22,28,25,20,93,78,54,30.47,30.35,6,1,12,0.00
2013-1-5,51,37,24,29,19,7,86,52,18,30.51,30.39,5,1,10,0.00
2013-1-6,50,40,32,26,18,12,67,42,29,30.39,30.07,7,2,12,0.00
2013-1-7,53,42,30,28,25,16,78,53,26,30.08,29.88,9,1,15,0.00
2013-1-8,57,45,35,31,23,16,70,44,21,30.16,29.93,11,4,22,0.00
2013-1-9,58,46,34,25,17,12,57,33,16,30.31,30.14,8,2,14,0.00
2013-1-10,59,45,33,28,23,18,70,45,23,30.16,29.92,13,4,23,0.00
2013-1-11,47,34,19,28,16,8,84,49,29,30.08,29.90,17,7,31,0.00
2013-1-12,35,25,12,11,6,1,74,46,26,30.31,30.07,9,2,21,0.00
2013-1-13,41,26,12,8,2,-4,68,38,18,30.32,30.16,7,2,12,0.00
2013-1-14,36,26,18,4,2,-4,48,35,21,30.32,30.19,12,4,21,0.00
2013-1-15,36,25,8,6,-1,-8,71,36,15,30.58,30.32,8,2,14,0.00
2013-1-16,49,37,25,9,2,-4,29,22,17,30.58,30.41,7,3,13,0.00
2013-1-17,55,44,35,15,11,7,38,27,19,30.43,30.30,10,3,18,0.00
2013-1-18,58,46,28,18,14,10,47,28,17,30.38,30.25,6,1,15,0.00
2013-1-19,65,50,32,24,18,13,48,29,17,30.36,30.22,5,2,12,0.00
2013-1-20,67,53,42,30,25,19,43,34,25,30.26,30.07,5,1,10,0.00
2013-1-21,66,55,46,32,27,25,45,35,26,30.16,30.06,7,2,11,0.00
2013-1-22,68,52,35,29,25,19,64,37,19,30.25,30.15,7,1,13,0.00
2013-1-23,67,54,40,30,25,21,54,34,23,30.30,30.19,7,1,13,0.00
2013-1-24,66,54,44,40,34,28,62,47,27,30.29,30.20,5,1,11,0.00
2013-1-25,66,56,44,49,40,36,93,57,41,30.24,30.05,4,1,8,0.02
2013-1-26,61,52,46,53,47,40,98,86,47,30.04,29.92,15,5,26,0.28
2013-1-27,58,49,44,47,43,41,96,81,57,30.07,29.99,10,4,18,0.17
2013-1-28,53,43,31,41,37,29,94,80,48,30.02,29.90,17,8,35,0.05
2013-1-29,39,32,26,29,22,16,95,70,42,30.35,30.01,15,8,28,0.11
2013-1-30,48,35,26,24,20,14,78,57,31,30.50,30.35,5,1,21,0.00
2013-1-31,54,42,30,27,22,18,69,46,31,30.40,30.25,6,2,14,0.00
2013-2-1,64,47,33,26,22,15,60,39,15,30.34,30.23,6,1,12,0.00
2013-2-2,64,51,34,25,21,14,63,35,14,30.36,30.23,6,2,11,0.00
2013-2-3,59,52,42,40,28,17,66,42,21,30.23,30.01,12,1,20,0.01
2013-2-4,61,51,40,36,34,30,73,52,39,30.09,29.98,7,1,11,0.00
2013-2-5,64,51,35,40,34,30,89,56,30,30.09,29.96,7,2,14,0.00
2013-2-6,62,50,36,38,33,27,85,55,27,30.08,29.94,10,3,20,0.00
2013-2-7,60,47,34,35,30,26,86,55,28,30.17,30.06,6,1,10,0.00
2013-2-8,60,48,33,28,18,-7,64,34,7,30.06,29.82,15,4,24,0.00
2013-2-9,46,37,29,30,23,16,90,58,37,30.13,29.78,14,7,28,0.02
2013-2-10,52,36,19,23,14,1,85,46,13,30.18,30.05,10,2,19,0.00
2013-2-11,47,36,27,30,18,9,95,54,30,30.22,30.03,13,6,22,0.00
2013-2-12,44,33,23,30,21,5,95,68,21,30.38,30.22,9,2,15,0.04
2013-2-13,54,39,27,20,15,9,59,40,19,30.35,30.19,5,1,10,0.00
2013-2-14,59,42,25,22,17,8,71,41,13,30.26,30.15,8,2,14,0.00
2013-2-15,59,48,38,22,14,-2,45,28,8,30.36,30.20,12,4,20,0.00
2013-2-16,62,48,29,16,12,8,50,26,12,30.40,30.17,9,3,19,0.00
2013-2-17,67,51,37,11,8,2,29,18,9,30.15,29.90,15,5,28,0.00
2013-2-18,61,50,32,14,10,3,40,22,11,30.10,29.99,9,3,16,0.00
2013-2-19,57,47,32,37,24,9,79,43,22,30.02,29.79,18,7,31,0.00
2013-2-20,44,34,25,32,25,15,94,72,32,30.02,29.68,19,9,30,0.02
2013-2-21,41,32,18,33,26,16,95,81,55,30.22,30.03,8,2,14,0.15
2013-2-22,49,38,30,31,28,24,90,68,46,30.25,30.13,11,4,17,0.00
2013-2-23,61,42,22,28,23,18,86,52,19,30.25,29.95,9,2,19,0.00
2013-2-24,45,38,25,24,14,1,57,39,18,30.16,29.84,20,8,34,0.00
2013-2-25,51,36,21,15,12,8,63,39,19,30.34,30.16,7,3,15,0.00
2013-2-26,58,42,23,18,11,3,62,32,11,30.19,30.03,13,4,21,0.00
2013-2-27,55,42,29,14,7,1,49,25,14,30.28,30.16,7,3,14,0.00
2013-2-28,56,45,34,8,2,-5,29,18,8,30.40,30.25,11,4,18,0.00
2013-3-1,65,50,31,18,12,4,38,22,14,30.42,30.29,10,4,17,0.00
2013-3-2,74,55,37,23,17,8,47,25,8,30.39,30.19,8,2,16,0.00
2013-3-3,75,59,41,21,14,-5,40,19,4,30.19,29.95,14,5,24,0.00
2013-3-4,66,58,44,34,20,3,39,24,11,30.07,29.81,20,9,34,0.00
2013-3-5,67,55,36,28,24,20,58,32,17,30.17,30.06,13,5,22,0.00
2013-3-6,74,62,53,31,22,12,30,22,14,30.08,29.88,13,5,20,0.00
2013-3-7,69,58,45,29,24,20,45,28,16,29.96,29.87,12,5,22,0.00
2013-3-8,57,47,34,44,35,23,94,66,34,29.97,29.69,21,9,32,0.33
2013-3-9,44,38,32,35,30,27,94,76,57,30.19,29.96,13,7,27,0.02
2013-3-10,54,42,34,35,30,21,91,64,28,30.26,30.17,8,3,17,0.00
2013-3-11,66,50,35,30,24,15,68,41,16,30.28,30.11,7,3,10,0.00
2013-3-12,70,54,36,32,22,8,66,34,9,30.18,30.09,8,3,13,0.00
2013-3-13,76,61,42,24,18,12,46,21,9,30.20,30.08,8,3,14,0.00
2013-3-14,80,64,45,26,15,8,41,18,7,30.17,30.03,8,3,13,0.00
2013-3-15,83,66,43,23,15,1,36,17,4,30.08,29.90,13,5,21,0.00
2013-3-16,78,67,56,22,13,-1,22,13,5,29.91,29.71,15,8,27,0.00
2013-3-17,74,62,43,23,17,7,27,18,11,29.93,29.77,17,7,28,0.00
2013-3-18,74,60,49,32,23,14,45,25,11,30.00,29.90,11,4,18,0.00
2013-3-19,70,60,50,30,25,20,42,27,17,30.06,29.92,12,6,22,0.00
2013-3-20,75,60,43,27,25,17,49,28,11,30.10,29.88,11,5,18,0.00
2013-3-21,72,61,54,31,26,17,37,27,14,29.88,29.71,12,6,21,0.00
2013-3-22,71,60,53,31,26,18,38,27,14,29.80,29.66,17,8,27,0.00
2013-3-23,65,54,39,28,19,8,55,27,12,30.02,29.80,16,6,29,0.00
2013-3-24,67,56,46,9,5,-1,20,13,8,30.04,29.87,13,6,22,0.00
2013-3-25,69,53,35,16,11,5,34,20,11,30.06,29.94,9,3,22,0.00
2013-3-26,75,59,39,16,12,9,35,17,8,30.08,29.91,10,4,18,0.00
2013-3-27,74,63,46,26,18,8,32,19,9,30.00,29.89,11,5,23,0.00
2013-3-28,75,63,44,32,24,16,48,24,12,30.06,29.87,9,4,18,0.00
2013-3-29,77,65,54,27,22,17,30,20,11,30.08,29.95,9,4,18,0.00
2013-3-30,74,63,47,27,20,13,31,20,12,30.05,29.91,11,4,20,0.00
2013-3-31,76,63,45,27,24,21,44,24,14,30.03,29.89,10,4,17,0.00
2013-4-1,77,64,52,33,25,13,42,25,9,29.96,29.82,15,6,24,0.00
2013-4-2,71,58,43,26,18,9,41,23,10,29.97,29.83,13,6,25,0.00
2013-4-3,72,60,40,25,20,12,42,22,10,30.06,29.96,11,4,20,0.00
2013-4-4,77,64,45,28,18,8,42,20,8,30.10,29.94,9,4,16,0.00
2013-4-5,80,68,56,28,20,12,29,17,9,29.98,29.79,15,7,26,0.00
2013-4-6,78,65,54,32,28,24,41,26,14,29.93,29.79,14,6,23,0.00
2013-4-7,77,65,45,33,27,20,55,26,12,29.86,29.72,13,6,24,0.00
2013-4-8,73,61,51,37,31,24,52,34,18,29.73,29.39,24,13,39,0.00
2013-4-9,55,46,40,37,27,19,84,49,26,29.97,29.49,22,9,34,0.03
2013-4-10,60,48,32,28,23,19,65,40,24,30.07,29.95,12,6,21,0.00
2013-4-11,71,55,36,27,22,9,63,31,9,30.08,29.83,12,4,19,0.00
2013-4-12,72,58,41,23,21,18,40,25,14,29.87,29.75,10,4,23,0.00
2013-4-13,75,62,45,25,22,18,38,22,13,29.87,29.72,11,6,24,0.00
2013-4-14,75,62,50,34,28,17,44,29,12,29.79,29.68,13,8,25,0.00
2013-4-15,78,63,50,36,30,19,53,32,12,29.79,29.72,16,9,26,0.00
2013-4-16,75,63,51,42,26,9,56,28,8,29.81,29.70,17,10,28,0.00
2013-4-17,62,54,41,43,26,9,64,37,19,30.01,29.71,20,9,38,0.00
2013-4-18,62,50,37,13,6,-7,31,18,6,30.21,30.00,10,4,19,0.00
2013-4-19,70,55,42,6,0,-9,20,11,4,30.24,30.01,10,5,19,0.00
2013-4-20,76,63,52,15,4,-4,18,10,6,30.01,29.88,14,6,22,0.00
2013-4-21,81,62,42,17,13,4,29,16,6,30.06,29.93,9,4,17,0.00
2013-4-22,83,69,53,18,12,6,20,12,6,29.96,29.81,13,6,23,0.00
2013-4-23,80,67,55,21,16,11,25,15,8,29.91,29.73,15,6,26,0.00
2013-4-24,82,69,54,26,19,12,27,16,8,29.91,29.78,9,4,16,0.00
2013-4-25,78,67,54,26,20,4,31,18,6,29.97,29.79,19,8,25,0.00
2013-4-26,79,62,40,28,15,-3,43,19,4,30.11,29.97,7,3,12,0.00
2013-4-27,81,69,48,26,17,10,33,15,7,30.07,29.91,9,4,23,0.00
2013-4-28,84,70,50,20,13,4,26,13,5,29.93,29.77,10,3,21,0.00
2013-4-29,86,74,55,14,9,3,17,9,4,29.83,29.67,9,4,33,0.00
2013-4-30,85,72,50,24,17,10,29,14,7,29.80,29.69,11,6,20,0.00
2013-5-1,81,68,51,24,18,7,32,16,6,29.99,29.78,10,5,19,0.00
2013-5-2,77,65,52,25,20,12,29,19,12,30.16,29.99,13,7,22,0.00
2013-5-3,73,60,45,21,16,10,36,20,10,30.16,29.93,15,6,21,0.00
2013-5-4,81,67,49,32,22,16,29,19,10,29.92,29.75,11,5,20,0.00
2013-5-5,79,68,57,35,28,15,36,23,10,29.93,29.80,14,8,24,0.00
2013-5-6,76,63,50,40,35,29,61,37,18,29.99,29.87,12,5,20,0.00
2013-5-7,74,62,52,39,31,23,57,33,16,30.01,29.88,13,6,22,0.00
2013-5-8,75,61,49,34,28,20,54,31,13,30.04,29.93,13,6,25,0.00
2013-5-9,75,63,50,38,30,21,61,33,14,30.01,29.90,11,4,18,0.00
2013-5-10,73,61,48,40,31,26,48,34,19,30.13,29.96,10,3,18,0.03
2013-5-11,74,62,47,38,35,32,61,37,24,30.16,30.09,12,5,21,0.00
2013-5-12,77,65,51,37,31,24,55,30,15,30.19,30.03,16,7,27,0.00
2013-5-13,80,68,54,35,25,12,39,22,8,30.13,29.98,16,5,25,0.00
2013-5-14,82,69,47,38,32,25,52,27,14,30.04,29.89,17,4,32,0.00
2013-5-15,86,74,62,34,32,29,33,22,14,29.99,29.82,13,7,23,0.00
2013-5-16,87,75,64,32,25,14,27,17,8,29.91,29.76,10,6,20,0.00
2013-5-17,83,72,56,31,24,5,34,18,5,29.88,29.78,12,5,21,0.00
2013-5-18,82,70,56,33,26,13,40,22,8,29.92,29.81,13,6,25,0.00
2013-5-19,84,69,46,34,27,14,54,24,8,29.91,29.77,12,6,23,0.00
2013-5-20,83,70,58,37,28,19,38,22,12,29.88,29.76,14,6,26,0.00
2013-5-21,86,70,46,23,16,8,32,14,6,29.93,29.78,11,5,20,0.00
2013-5-22,88,75,56,24,19,12,22,12,7,29.81,29.67,10,5,17,0.00
2013-5-23,88,74,57,31,20,7,31,15,5,29.84,29.74,12,5,21,0.00
2013-5-24,88,74,54,41,23,-1,54,20,3,29.90,29.82,10,4,20,0.00
2013-5-25,87,75,58,31,21,13,31,15,7,29.93,29.82,12,5,22,0.00
2013-5-26,87,73,51,30,17,6,30,14,5,29.94,29.85,11,5,21,0.00
2013-5-27,89,73,52,26,13,0,27,12,3,29.89,29.72,10,4,18,0.00
2013-5-28,85,72,49,29,17,6,31,14,5,29.76,29.60,13,6,23,0.00
2013-5-29,84,71,57,33,28,25,36,22,12,29.77,29.67,13,5,41,0.00
2013-5-30,88,74,58,51,37,28,64,29,12,29.83,29.74,11,5,21,0.00
2013-5-31,91,76,59,51,41,34,68,31,14,29.85,29.73,13,5,22,0.00
2013-6-1,94,79,58,38,30,19,42,19,7,29.82,29.69,9,3,15,0.00
2013-6-2,96,83,69,41,34,26,30,18,9,29.75,29.61,12,5,22,0.00
2013-6-3,92,80,60,36,27,17,35,16,7,29.79,29.69,11,5,21,0.00
2013-6-4,92,80,65,40,34,27,37,20,11,29.83,29.72,11,5,21,0.00
2013-6-5,92,79,67,40,25,11,27,16,5,29.84,29.71,12,5,22,0.00
2013-6-6,92,80,63,27,18,2,19,11,3,29.80,29.68,9,4,16,0.00
2013-6-7,96,82,61,32,27,18,26,15,6,29.76,29.60,9,3,17,0.00
2013-6-8,95,83,67,32,26,20,27,13,7,29.78,29.68,13,7,26,0.00
2013-6-9,95,83,67,39,29,20,32,16,8,29.83,29.73,10,7,20,0.00
2013-6-10,97,84,66,30,26,20,22,13,8,29.84,29.71,11,5,17,0.00
2013-6-11,100,86,70,30,26,20,20,12,7,29.82,29.68,12,6,21,0.00
2013-6-12,100,86,63,40,30,24,25,15,8,29.84,29.70,13,6,22,0.00
2013-6-13,95,82,70,48,40,30,42,24,14,29.82,29.69,11,6,20,0.00
2013-6-14,92,79,69,54,47,40,54,34,20,29.81,29.69,12,6,23,0.00
2013-6-15,90,77,64,55,50,44,58,41,26,29.89,29.78,17,4,25,0.00
2013-6-16,92,79,62,54,46,31,64,35,16,29.94,29.80,11,4,19,0.00
2013-6-17,95,82,67,33,27,20,24,14,8,29.88,29.75,12,6,26,0.00
2013-6-18,95,83,64,27,18,4,21,10,3,29.82,29.69,12,5,35,0.00
2013-6-19,96,83,71,36,24,14,18,12,7,29.75,29.63,15,6,27,0.00
2013-6-20,95,80,57,36,23,5,27,14,4,29.80,29.71,14,5,25,0.00
2013-6-21,95,81,62,42,31,17,40,19,6,29.82,29.73,15,5,27,0.00
2013-6-22,95,81,67,37,28,18,31,16,7,29.83,29.70,14,6,23,0.00
2013-6-23,91,80,64,37,31,24,28,18,11,29.80,29.67,16,6,27,0.00
2013-6-24,91,80,67,39,34,28,28,20,15,29.82,29.72,13,6,23,0.00
2013-6-25,93,80,58,42,29,19,49,19,8,29.90,29.81,11,5,23,0.00
2013-6-26,94,82,70,31,25,18,22,13,9,29.97,29.82,10,6,16,0.00
2013-6-27,98,84,66,37,31,18,26,15,9,29.94,29.79,13,8,21,0.00
2013-6-28,97,85,70,38,32,27,21,15,10,29.86,29.74,13,5,24,0.00
2013-6-29,98,86,73,43,38,34,25,18,12,29.83,29.67,9,4,21,0.00
2013-6-30,100,84,69,59,46,39,68,29,14,29.78,29.57,16,6,25,0.00
2013-7-1,94,81,66,58,52,45,75,39,19,29.93,29.72,20,5,27,0.08
2013-7-2,88,74,61,60,55,51,86,54,31,29.98,29.78,16,6,32,0.24
2013-7-3,92,77,62,61,54,49,81,48,24,29.91,29.68,13,4,24,0.05
2013-7-4,94,79,63,61,55,48,87,49,23,29.79,29.65,13,5,23,0.00
2013-7-5,87,74,66,61,58,52,81,59,35,29.84,29.68,15,4,23,0.01
2013-7-6,94,79,63,61,57,52,83,50,25,29.80,29.65,9,3,15,0.00
2013-7-7,96,80,68,62,55,49,67,45,22,29.82,29.63,12,4,20,0.00
2013-7-8,93,80,68,61,58,53,78,49,27,29.89,29.77,11,5,20,0.00
2013-7-9,92,76,63,66,61,56,93,62,33,29.93,29.74,17,6,28,0.91
2013-7-10,85,72,64,68,64,59,95,76,42,29.94,29.80,13,4,22,0.18
2013-7-11,85,73,62,66,62,58,94,71,43,29.94,29.79,13,4,21,0.03
2013-7-12,86,75,62,65,60,55,95,63,38,29.92,29.75,11,4,22,0.52
2013-7-13,89,76,65,64,60,55,85,61,32,29.88,29.73,16,4,24,0.29
2013-7-14,92,78,65,66,61,56,90,59,31,29.89,29.71,14,4,23,0.00
2013-7-15,91,77,63,64,60,57,96,59,33,29.84,29.65,12,5,20,0.84
2013-7-16,73,64,62,64,62,61,97,93,70,30.03,29.83,8,3,19,1.43
2013-7-17,82,71,61,62,58,52,96,66,37,30.07,29.85,10,4,24,0.01
2013-7-18,76,69,60,60,58,56,91,69,53,29.98,29.87,11,4,19,0.00
2013-7-19,74,68,65,64,62,59,94,79,66,29.94,29.81,8,3,15,0.22
2013-7-20,79,70,61,65,61,59,93,76,55,29.87,29.79,10,3,14,0.00
2013-7-21,83,72,64,65,62,58,93,73,44,29.89,29.78,10,4,17,0.03
2013-7-22,84,73,66,64,62,58,91,70,43,29.92,29.82,9,5,16,0.00
2013-7-23,85,78,67,64,61,60,78,57,43,29.92,29.80,9,6,17,0.00
2013-7-24,82,74,65,67,64,61,92,74,53,29.92,29.83,7,3,14,0.00
2013-7-25,82,72,66,67,64,60,95,77,52,29.96,29.87,15,3,24,0.00
2013-7-26,87,77,68,66,63,60,83,64,45,30.04,29.92,14,4,24,0.00
2013-7-27,84,71,65,67,62,59,91,74,45,29.98,29.83,12,2,22,0.05
2013-7-28,88,76,64,64,59,53,86,58,30,29.86,29.75,10,3,18,0.01
2013-7-29,89,76,60,63,55,49,92,52,29,29.97,29.82,7,3,14,0.00
2013-7-30,92,80,69,56,53,50,60,40,26,30.01,29.88,8,4,14,0.00
2013-7-31,89,78,68,64,58,53,78,53,31,29.95,29.85,9,2,13,0.00
2013-8-1,79,69,63,66,61,56,95,76,49,30.02,29.88,12,2,16,0.70
2013-8-2,82,71,61,69,62,57,93,75,52,29.98,29.89,14,3,23,0.02
2013-8-3,88,76,60,64,59,52,89,58,31,29.97,29.85,7,2,11,0.00
2013-8-4,86,76,65,63,59,54,84,57,38,29.93,29.82,10,4,14,0.06
2013-8-5,81,70,60,64,60,54,95,72,40,30.02,29.84,15,5,24,0.52
2013-8-6,77,67,60,65,60,57,94,80,54,29.98,29.91,12,3,22,0.08
2013-8-7,82,71,59,62,56,49,95,63,38,30.01,29.90,9,5,20,0.00
2013-8-8,86,74,58,59,51,40,84,47,21,29.93,29.82,7,2,19,0.00
2013-8-9,87,75,58,56,50,41,67,43,27,29.89,29.80,8,3,15,0.00
2013-8-10,87,74,62,63,52,40,76,48,26,29.95,29.84,11,4,17,0.00
2013-8-11,84,73,64,66,60,57,81,64,43,29.95,29.82,10,4,18,0.02
2013-8-12,89,76,63,63,59,56,87,59,35,29.90,29.80,10,3,16,0.00
2013-8-13,89,76,65,72,58,41,86,57,32,29.92,29.77,9,2,15,0.09
2013-8-14,90,77,68,63,59,54,82,55,33,29.94,29.79,12,4,18,0.04
2013-8-15,89,77,66,60,57,53,77,53,31,29.92,29.82,8,2,12,0.00
2013-8-16,91,78,64,62,56,51,80,51,27,29.92,29.82,11,3,20,0.01
2013-8-17,93,79,64,62,56,46,79,50,20,29.92,29.79,9,3,30,0.00
2013-8-18,94,80,64,59,52,47,64,39,22,29.87,29.77,10,4,18,0.00
2013-8-19,92,80,70,58,52,48,52,38,22,29.88,29.75,12,3,19,0.00
2013-8-20,90,76,67,60,55,50,78,50,28,29.90,29.74,11,5,19,0.03
2013-8-21,88,74,61,70,58,53,82,59,33,29.91,29.80,14,3,23,0.25
2013-8-22,88,75,60,62,56,49,89,55,26,29.94,29.79,12,3,18,0.00
2013-8-23,87,75,62,61,55,51,93,53,30,29.86,29.70,10,5,18,0.26
2013-8-24,76,66,61,63,60,58,95,81,59,29.97,29.84,11,2,18,0.14
2013-8-25,84,71,62,67,62,58,89,74,45,30.00,29.87,14,2,24,0.02
2013-8-26,87,76,65,64,58,52,87,58,32,29.94,29.80,13,4,19,0.01
2013-8-27,88,76,65,58,55,49,66,48,28,29.87,29.73,11,4,30,0.00
2013-8-28,82,72,64,64,59,56,79,63,43,29.95,29.78,12,5,21,0.00
2013-8-29,78,68,62,65,62,61,97,84,61,30.06,29.91,10,2,22,1.48
2013-8-30,76,70,64,66,62,58,94,76,61,30.08,29.96,6,2,11,0.01
2013-8-31,87,74,59,66,60,57,94,65,37,29.99,29.82,9,3,14,0.00
2013-9-1,88,77,64,65,60,56,84,58,35,29.88,29.75,7,3,12,0.00
2013-9-2,89,78,65,63,58,54,81,52,31,29.90,29.74,8,3,14,0.00
2013-9-3,85,74,63,62,57,54,87,58,38,29.91,29.80,10,4,18,0.03
2013-9-4,87,76,65,61,53,48,74,47,27,29.96,29.82,12,4,20,0.00
2013-9-5,88,76,66,56,52,48,55,43,30,29.95,29.84,9,2,16,0.00
2013-9-6,86,74,67,62,54,49,73,51,33,29.95,29.81,13,3,23,0.06
2013-9-7,81,69,62,63,59,54,91,73,47,29.94,29.83,10,4,16,0.42
2013-9-8,78,66,61,66,61,58,95,84,58,29.91,29.76,16,2,24,0.49
2013-9-9,68,64,61,64,62,59,97,94,85,29.84,29.72,8,2,13,0.33
2013-9-10,77,68,60,63,59,55,97,76,50,29.91,29.79,8,3,15,0.00
2013-9-11,81,70,58,60,55,51,91,61,38,29.96,29.84,6,3,12,0.00
2013-9-12,82,70,59,64,59,52,90,69,50,29.87,29.72,17,3,33,0.90
2013-9-13,82,70,62,66,61,52,94,74,36,29.80,29.65,9,3,16,0.00
2013-9-14,83,71,60,63,60,55,94,69,39,29.77,29.67,6,2,14,0.00
2013-9-15,85,73,63,60,58,54,82,60,36,29.81,29.72,11,3,22,0.00
2013-9-16,84,74,64,61,58,56,75,60,40,29.87,29.75,10,4,21,0.00
2013-9-17,84,73,61,62,57,48,82,61,29,29.85,29.70,8,2,15,0.00
2013-9-18,87,75,62,62,54,43,85,51,28,29.78,29.63,8,2,13,0.00
2013-9-19,87,75,64,58,51,39,72,44,30,29.74,29.64,7,3,13,0.00
2013-9-20,85,70,60,62,58,52,88,67,39,29.91,29.74,10,3,16,0.07
2013-9-21,82,69,57,60,55,48,90,64,32,29.91,29.74,10,2,15,0.00
2013-9-22,82,70,59,62,54,41,79,58,37,29.76,29.61,13,5,22,0.00
2013-9-23,82,66,46,49,40,30,82,44,16,29.94,29.73,6,2,11,0.00
2013-9-24,85,69,49,46,38,28,55,34,18,30.00,29.84,8,3,24,0.00
2013-9-25,84,73,60,40,34,27,33,25,19,29.85,29.65,10,5,18,0.00
2013-9-26,81,69,52,54,40,28,65,35,24,29.77,29.67,12,5,24,0.00
2013-9-27,70,63,59,55,50,46,70,62,42,29.80,29.68,12,6,18,0.00
2013-9-28,76,64,50,45,39,31,59,41,30,30.08,29.93,8,3,14,0.00
2013-9-29,82,67,49,44,39,36,64,38,20,30.11,29.95,7,3,12,0.00
2013-9-30,83,68,48,42,35,27,63,33,15,29.98,29.85,8,4,14,0.00
2013-10-1,84,69,48,38,33,27,48,28,18,29.95,29.85,9,4,15,0.00
2013-10-2,81,70,60,43,38,31,46,33,17,29.92,29.80,7,4,15,0.00
2013-10-3,82,70,59,49,40,28,60,37,14,29.86,29.71,12,5,21,0.00
2013-10-4,79,66,50,50,40,28,80,43,16,29.95,29.78,12,5,22,0.00
2013-10-5,74,62,46,35,26,16,43,26,15,30.09,29.95,8,4,16,0.00
2013-10-6,76,62,46,26,22,16,39,22,13,30.16,30.05,10,4,17,0.00
2013-10-7,80,64,44,35,28,20,42,27,17,30.14,29.96,8,3,15,0.00
2013-10-8,79,68,57,40,32,27,36,27,19,29.96,29.77,10,4,19,0.00
2013-10-9,77,65,45,48,38,30,67,39,22,29.84,29.74,14,7,25,0.00
2013-10-10,67,58,41,48,40,32,79,53,28,29.92,29.71,19,8,32,0.00
2013-10-11,72,54,38,42,35,29,90,54,21,30.04,29.92,8,2,17,0.00
2013-10-12,78,62,41,40,34,28,69,39,16,30.03,29.91,11,4,20,0.00
2013-10-13,79,65,46,50,42,35,77,46,22,30.00,29.89,17,7,28,0.00
2013-10-14,75,64,53,53,46,33,81,55,33,29.97,29.88,10,4,19,0.00
2013-10-15,76,61,43,47,37,27,82,45,27,29.97,29.84,11,4,19,0.00
2013-10-16,73,59,47,28,21,12,40,24,13,30.06,29.96,9,4,18,0.00
2013-10-17,73,57,35,24,17,8,49,23,11,30.10,29.95,12,4,18,0.00
2013-10-18,74,57,38,26,20,14,46,25,14,30.05,29.95,8,3,14,0.00
2013-10-19,76,60,42,19,16,12,34,19,9,30.10,29.96,6,2,15,0.00
2013-10-20,74,61,41,22,15,8,37,18,8,30.00,29.88,9,4,15,0.00
2013-10-21,76,61,40,20,16,11,37,18,10,30.05,29.95,8,3,17,0.00
2013-10-22,76,60,44,26,21,14,39,23,12,30.11,29.99,10,3,15,0.00
2013-10-23,78,63,49,38,30,25,42,31,19,30.03,29.92,8,2,14,0.00
2013-10-24,79,65,48,42,35,27,57,35,19,30.02,29.89,11,4,21,0.00
2013-10-25,78,64,44,31,26,22,46,25,15,30.06,29.92,9,4,14,0.00
2013-10-26,75,60,41,30,26,18,50,29,12,30.14,30.05,7,2,13,0.00
2013-10-27,78,63,49,35,29,20,49,30,15,30.09,29.83,8,3,16,0.00
2013-10-28,70,61,48,32,28,19,46,29,15,29.95,29.83,14,6,25,0.00
2013-10-29,72,60,49,38,31,21,52,34,16,29.96,29.84,15,5,26,0.00
2013-10-30,68,54,43,42,35,27,68,49,25,30.05,29.86,13,6,24,0.00
2013-10-31,67,50,30,32,21,2,82,38,9,30.18,30.04,9,3,17,0.00
2013-11-1,69,53,31,24,18,10,47,26,17,30.24,30.12,7,2,12,0.00
2013-11-2,73,59,44,25,18,15,34,21,12,30.18,29.95,11,4,20,0.00
2013-11-3,70,59,48,52,43,27,81,56,28,29.95,29.77,13,5,27,0.03
2013-11-4,69,57,40,45,40,36,86,56,34,29.88,29.75,11,5,23,0.00
2013-11-5,63,53,44,44,37,31,81,56,31,30.15,29.84,9,4,18,0.00
2013-11-6,63,50,32,35,24,15,87,41,19,30.34,30.15,8,3,14,0.00
2013-11-7,68,54,37,31,23,12,50,31,22,30.35,30.18,13,4,23,0.00
2013-11-8,72,57,46,36,32,28,56,41,23,30.19,30.01,6,2,20,0.00
2013-11-9,74,58,39,38,33,28,66,41,25,30.16,30.06,6,2,12,0.00
2013-11-10,75,62,44,40,33,29,57,36,24,30.17,30.05,9,2,16,0.00
2013-11-11,76,63,50,40,37,34,59,40,26,30.12,30.00,7,2,13,0.00
2013-11-12,70,60,50,46,40,34,67,48,37,30.25,30.12,14,7,26,0.00
2013-11-13,64,53,44,43,40,38,80,63,45,30.26,30.11,10,4,16,0.00
2013-11-14,72,57,44,43,36,26,81,50,21,30.11,29.93,8,2,14,0.00
2013-11-15,64,57,47,50,44,32,83,63,45,29.93,29.70,17,7,27,0.00
2013-11-16,66,57,47,48,42,35,84,59,33,29.92,29.72,15,8,27,0.00
2013-11-17,67,55,43,45,41,37,93,64,36,30.11,29.92,10,3,21,0.00
2013-11-18,70,57,43,50,40,30,92,57,27,30.13,30.00,9,3,16,0.00
2013-11-19,72,57,38,42,34,23,80,47,17,30.05,29.88,10,4,16,0.00
2013-11-20,70,56,40,41,33,26,71,45,19,29.93,29.82,13,4,19,0.00
2013-11-21,66,55,38,46,41,32,82,61,45,29.99,29.90,11,4,20,0.00
2013-11-22,61,53,42,52,46,38,97,77,54,30.00,29.88,17,6,29,0.24
2013-11-23,42,38,36,38,37,35,96,93,87,30.24,29.99,11,6,17,0.24
2013-11-24,44,38,31,38,35,29,96,89,78,30.29,30.21,7,3,12,0.03
2013-11-25,50,38,26,39,32,24,96,82,62,30.40,30.25,7,2,12,0.01
2013-11-26,52,42,31,33,28,21,85,59,40,30.45,30.34,14,5,22,0.00
2013-11-27,50,42,34,25,23,20,66,47,35,30.39,30.18,10,5,15,0.00
2013-11-28,60,44,34,35,28,21,72,53,37,30.27,30.17,8,2,12,0.00
2013-11-29,64,51,40,40,36,31,72,57,39,30.30,30.08,8,2,13,0.00
2013-11-30,64,52,42,39,37,35,79,57,36,30.25,30.06,5,1,9,0.00
2013-12-1,64,55,45,40,35,23,67,48,27,30.24,30.15,6,1,10,0.00
2013-12-2,68,54,34,31,20,-1,73,33,10,30.17,29.94,8,4,14,0.00
2013-12-3,68,56,46,42,25,7,70,34,11,29.96,29.75,12,5,22,0.00
2013-12-4,62,53,45,43,34,20,74,53,22,29.89,29.66,18,10,28,0.00
2013-12-5,46,39,30,40,34,27,94,84,58,30.15,29.84,11,6,20,0.12
2013-12-6,46,35,22,29,26,19,92,71,44,30.30,30.14,5,2,10,0.01
2013-12-7,56,39,24,32,20,8,90,53,15,30.22,30.08,13,4,21,0.01
2013-12-8,50,40,30,32,28,17,81,63,44,30.19,30.08,9,5,15,0.00
2013-12-9,48,39,28,32,23,10,91,59,25,30.40,30.14,9,4,19,0.00
2013-12-10,51,41,30,23,15,8,48,35,27,30.40,30.25,9,3,14,0.00
2013-12-11,60,49,39,41,30,21,66,48,38,30.34,30.25,9,3,14,0.00
2013-12-12,56,47,40,45,35,22,91,64,41,30.31,30.13,9,4,14,0.01
2013-12-13,54,44,34,33,30,28,80,58,38,30.23,30.12,8,5,17,0.00
2013-12-14,54,40,26,30,23,19,86,54,27,30.38,30.22,8,3,15,0.00
2013-12-15,58,46,32,24,19,12,57,36,22,30.33,30.21,7,3,12,0.00
2013-12-16,66,52,34,21,18,15,50,27,16,30.26,30.16,6,2,13,0.00
2013-12-17,68,52,35,24,21,18,52,31,18,30.26,30.11,8,3,13,0.00
2013-12-18,61,51,39,25,20,15,56,30,19,30.12,29.85,5,2,10,0.00
2013-12-19,60,50,37,26,21,15,57,34,17,29.85,29.69,14,6,24,0.00
2013-12-20,46,40,33,38,31,21,94,74,44,29.80,29.56,11,6,19,0.09
2013-12-21,45,37,33,35,32,28,94,84,56,30.06,29.79,15,7,26,0.08
2013-12-22,50,38,28,36,31,25,94,77,44,30.31,30.07,10,3,15,0.00
2013-12-23,54,43,30,28,24,18,85,49,29,30.41,30.29,8,3,14,0.00
2013-12-24,58,43,29,26,22,17,69,45,28,30.29,30.12,7,2,11,0.00
2013-12-25,56,44,33,27,24,20,68,45,31,30.28,30.17,9,4,17,0.00
2013-12-26,52,40,27,24,21,17,69,48,32,30.30,30.19,9,3,14,0.00
2013-12-27,54,39,25,24,19,15,67,46,25,30.33,30.21,9,3,15,0.00
2013-12-28,56,43,31,27,23,17,71,46,27,30.24,29.99,7,2,11,0.00
2013-12-29,56,47,33,25,22,18,62,38,24,30.09,29.93,6,3,11,0.00
2013-12-30,58,45,31,24,19,8,62,37,14,30.26,30.09,7,2,13,0.00
2013-12-31,58,44,31,21,18,12,54,37,22,30.27,30.14,5,1,10,0.00
2014-1-1,65,46,32,21,19,15,56,36,17,30.19,30.07,5,2,9,0.00
2014-1-2,62,50,39,23,21,19,45,32,21,30.20,30.07,9,3,14,0.00